createdAt,value
2023-01-04T00:01:13.625Z,2.50
2023-01-04T00:03:41.088Z,2.30
2023-01-04T00:06:10.521Z,2.23
2023-01-04T00:08:37.481Z,2.40
2023-01-04T00:11:10.872Z,2.43
2023-01-04T00:13:37.904Z,2.00
2023-01-04T00:16:11.527Z,2.17
2023-01-04T00:18:38.527Z,2.40
2023-01-04T00:21:29.399Z,2.80
2023-01-04T00:23:59.264Z,1.93
2023-01-04T00:26:31.420Z,2.20
2023-01-04T00:29:01.363Z,2.27
2023-01-04T00:31:28.994Z,1.87
2023-01-04T00:33:57.874Z,2.20
2023-01-04T00:36:25.788Z,2.10
2023-01-04T00:39:07.622Z,2.13
2023-01-04T00:41:58.897Z,2.33
2023-01-04T00:44:26.800Z,2.37
2023-01-04T00:46:54.036Z,1.80
2023-01-04T00:49:20.932Z,2.30
2023-01-04T00:51:47.764Z,2.33
2023-01-04T00:54:15.894Z,2.10
2023-01-04T00:56:43.223Z,2.17
2023-01-04T00:59:12.576Z,1.70
2023-01-04T01:01:41.045Z,2.03
2023-01-04T01:04:10.195Z,2.10
2023-01-04T01:06:37.125Z,1.97
2023-01-04T01:09:04.122Z,1.80
2023-01-04T01:11:31.716Z,1.97
2023-01-04T01:13:59.116Z,2.07
2023-01-04T01:16:52.853Z,1.90
2023-01-04T01:19:14.782Z,2.57
2023-01-04T01:21:41.675Z,2.10
2023-01-04T01:24:16.091Z,2.53
2023-01-04T01:26:43.169Z,2.07
2023-01-04T01:29:09.955Z,1.60
2023-01-04T01:31:36.798Z,1.83
2023-01-04T01:34:03.757Z,2.20
2023-01-04T01:36:30.653Z,2.33
2023-01-04T01:38:57.436Z,2.00
2023-01-04T01:41:29.919Z,2.60
2023-01-04T01:44:02.658Z,2.17
2023-01-04T01:46:41.161Z,2.27
2023-01-04T01:49:14.957Z,1.80
2023-01-04T01:51:42.681Z,2.23
2023-01-04T01:54:14.469Z,1.80
2023-01-04T01:56:43.247Z,2.13
2023-01-04T01:59:12.533Z,2.17
2023-01-04T02:01:40.127Z,2.10
2023-01-04T02:04:08.397Z,1.90
2023-01-04T02:06:40.641Z,2.20
2023-01-04T02:09:08.403Z,2.27
2023-01-04T02:11:35.283Z,2.13
2023-01-04T02:14:23.759Z,2.50
2023-01-04T02:17:16.490Z,2.43
2023-01-04T02:20:10.392Z,2.40
2023-01-04T02:22:57.010Z,2.27
2023-01-04T02:25:51.516Z,2.43
2023-01-04T02:28:21.073Z,2.37
2023-01-04T02:31:09.217Z,2.23
2023-01-04T02:33:44.454Z,2.50
2023-01-04T02:36:22.662Z,2.60
2023-01-04T02:39:01.085Z,2.87
2023-01-04T02:41:48.027Z,2.23
2023-01-04T02:44:57.988Z,2.60
2023-01-04T02:47:55.185Z,2.50
2023-01-04T02:50:34.111Z,2.53
2023-01-04T02:53:05.033Z,3.00
2023-01-04T02:56:12.077Z,2.77
2023-01-04T02:59:03.648Z,2.50
2023-01-04T03:01:55.213Z,2.70
2023-01-04T03:04:58.809Z,2.80
2023-01-04T03:07:45.292Z,2.70
2023-01-04T03:10:42.516Z,3.00
2023-01-04T03:13:21.574Z,3.17
2023-01-04T03:16:00.310Z,3.17
2023-01-04T03:18:30.279Z,3.20
2023-01-04T03:21:00.269Z,2.90
2023-01-04T03:23:59.661Z,3.23
2023-01-04T03:26:53.024Z,3.63
2023-01-04T03:29:42.232Z,2.73
2023-01-04T03:32:31.262Z,4.00
2023-01-04T03:35:17.514Z,3.87
2023-01-04T03:37:48.147Z,3.50
2023-01-04T03:40:39.389Z,3.93
2023-01-04T03:43:38.593Z,3.90
2023-01-04T03:46:32.891Z,5.03
2023-01-04T03:49:11.375Z,4.70
2023-01-04T03:51:39.399Z,3.80
2023-01-04T03:54:17.464Z,5.10
2023-01-04T03:56:45.716Z,4.70
2023-01-04T03:59:13.545Z,5.00
2023-01-04T04:01:44.089Z,4.90
2023-01-04T04:04:30.149Z,4.63
2023-01-04T04:07:15.736Z,5.13
2023-01-04T04:09:42.651Z,5.30
2023-01-04T04:12:09.652Z,5.30
2023-01-04T04:14:36.754Z,5.00
2023-01-04T04:17:04.090Z,5.13
2023-01-04T04:19:30.938Z,5.23
2023-01-04T04:21:57.737Z,5.50
2023-01-04T04:24:26.748Z,5.63
2023-01-04T04:26:55.380Z,4.83
2023-01-04T04:29:23.398Z,4.50
2023-01-04T04:31:50.465Z,5.43
2023-01-04T04:34:17.629Z,5.90
2023-01-04T04:36:44.522Z,5.87
2023-01-04T04:39:12.085Z,6.43
2023-01-04T04:41:39.947Z,6.70
2023-01-04T04:44:12.529Z,7.10
2023-01-04T04:46:39.577Z,7.50
2023-01-04T04:49:07.145Z,6.50
2023-01-04T04:51:34.958Z,7.60
2023-01-04T04:54:02.010Z,6.97
2023-01-04T04:56:28.872Z,6.20
2023-01-04T04:58:58.791Z,7.77
2023-01-04T05:01:25.652Z,8.70
2023-01-04T05:03:52.561Z,7.27
2023-01-04T05:06:19.614Z,8.77
2023-01-04T05:08:46.486Z,7.43
2023-01-04T05:11:14.035Z,9.20
2023-01-04T05:13:41.375Z,8.70
2023-01-04T05:16:10.032Z,8.53
2023-01-04T05:18:37.327Z,7.10
2023-01-04T05:21:04.423Z,7.00
2023-01-04T05:23:31.293Z,7.40
2023-01-04T05:26:01.274Z,7.97
2023-01-04T05:28:28.266Z,8.03
2023-01-04T05:30:56.001Z,7.90
2023-01-04T05:33:27.146Z,7.67
2023-01-04T05:35:55.235Z,7.50
2023-01-04T05:38:22.499Z,7.70
2023-01-04T05:40:50.109Z,4.93
2023-01-04T05:43:18.333Z,6.03
2023-01-04T05:45:49.010Z,6.10
2023-01-04T05:48:16.659Z,5.70
2023-01-04T05:50:45.857Z,5.17
2023-01-04T05:53:14.635Z,4.90
2023-01-04T05:55:41.512Z,4.30
2023-01-04T05:58:08.501Z,3.97
2023-01-04T06:00:35.417Z,3.13
2023-01-04T06:03:02.432Z,3.30
2023-01-04T06:05:29.328Z,2.87
2023-01-04T06:07:56.135Z,2.80
2023-01-04T06:10:23.067Z,2.67
2023-01-04T06:12:50.374Z,2.50
2023-01-04T06:15:17.319Z,2.97
2023-01-04T06:17:46.785Z,2.40
2023-01-04T06:20:13.698Z,2.30
2023-01-04T06:22:41.399Z,2.20
2023-01-04T06:25:09.590Z,2.10
2023-01-04T06:27:36.733Z,2.50
2023-01-04T06:30:04.621Z,2.20
2023-01-04T06:32:31.436Z,2.30
2023-01-04T06:34:58.429Z,2.23
2023-01-04T06:37:25.364Z,2.43
2023-01-04T06:39:52.257Z,2.47
2023-01-04T06:42:37.778Z,2.80
2023-01-04T06:45:05.287Z,2.30
2023-01-04T06:47:32.193Z,2.73
2023-01-04T06:49:59.053Z,2.60
2023-01-04T06:52:25.935Z,2.90
2023-01-04T06:54:52.843Z,2.50
2023-01-04T06:57:19.737Z,3.17
2023-01-04T06:59:46.601Z,2.80
2023-01-04T07:02:15.658Z,2.87
2023-01-04T07:04:43.685Z,2.80
2023-01-04T07:07:11.505Z,2.80
2023-01-04T07:09:38.923Z,3.00
2023-01-04T07:12:06.278Z,2.43
2023-01-04T07:14:33.517Z,3.10
2023-01-04T07:17:00.394Z,2.70
2023-01-04T07:19:27.374Z,3.17
2023-01-04T07:21:54.254Z,2.80
2023-01-04T07:24:26.309Z,2.17
2023-01-04T07:26:57.283Z,3.30
2023-01-04T07:29:24.207Z,3.30
2023-01-04T07:31:52.216Z,2.77
2023-01-04T07:34:21.921Z,2.90
2023-01-04T07:36:49.677Z,2.70
2023-01-04T07:39:17.832Z,2.63
2023-01-04T07:41:45.162Z,2.70
2023-01-04T07:44:12.479Z,3.00
2023-01-04T07:46:40.197Z,2.70
2023-01-04T07:49:14.615Z,2.50
2023-01-04T07:51:43.833Z,2.70
2023-01-04T07:54:11.641Z,2.63
2023-01-04T07:56:38.497Z,2.63
2023-01-04T07:59:08.204Z,2.67
2023-01-04T08:01:35.754Z,3.10
2023-01-04T08:04:02.749Z,2.17
2023-01-04T08:09:06.060Z,2.57
2023-01-04T08:11:33.789Z,2.93
2023-01-04T08:14:00.895Z,2.40
2023-01-04T08:16:33.708Z,2.50
2023-01-04T08:19:03.841Z,2.47
2023-01-04T08:21:32.721Z,2.50
2023-01-04T08:23:59.809Z,2.23
2023-01-04T08:26:27.539Z,2.70
2023-01-04T08:28:54.845Z,2.80
2023-01-04T08:31:24.163Z,2.53
2023-01-04T08:33:51.948Z,2.47
2023-01-04T08:36:27.731Z,2.50
2023-01-04T08:39:04.817Z,2.30
2023-01-04T08:41:57.830Z,2.27
2023-01-04T08:44:22.741Z,2.00
2023-01-04T08:46:50.965Z,2.10
2023-01-04T08:49:18.235Z,1.67
2023-01-04T08:51:45.907Z,2.40
2023-01-04T08:54:14.085Z,2.30
2023-01-04T08:56:42.480Z,2.53
2023-01-04T08:59:11.246Z,2.73
2023-01-04T09:01:39.376Z,2.83
2023-01-04T09:04:06.807Z,2.83
2023-01-04T09:06:33.963Z,2.80
2023-01-04T09:09:01.033Z,3.10
2023-01-04T09:11:27.913Z,2.47
2023-01-04T09:14:04.381Z,2.60
2023-01-04T09:16:34.512Z,2.93
2023-01-04T09:19:01.456Z,2.93
2023-01-04T09:21:28.371Z,2.73
2023-01-04T09:23:57.802Z,2.80
2023-01-04T09:26:25.011Z,2.50
2023-01-04T09:28:54.157Z,2.77
2023-01-04T09:31:24.435Z,3.10
2023-01-04T09:36:39.250Z,2.57
2023-01-04T09:39:07.383Z,2.50
2023-01-04T09:41:43.345Z,2.40
2023-01-04T09:44:10.130Z,2.20
2023-01-04T09:46:54.631Z,2.27
2023-01-04T09:49:43.326Z,2.23
2023-01-04T09:52:10.180Z,2.10
2023-01-04T09:55:02.980Z,1.97
2023-01-04T09:57:59.164Z,2.00
2023-01-04T10:00:41.827Z,2.00
2023-01-04T10:03:26.332Z,2.20
2023-01-04T10:05:55.470Z,1.73
2023-01-04T10:08:23.152Z,2.00
2023-01-04T10:10:57.370Z,2.40
2023-01-04T10:13:33.491Z,1.90
2023-01-04T10:16:17.673Z,2.00
2023-01-04T10:20:57.993Z,1.57
2023-01-04T10:22:45.273Z,2.10
2023-01-04T10:25:15.206Z,1.53
2023-01-04T10:27:57.450Z,1.83
2023-01-04T10:30:54.464Z,2.10
2023-01-04T10:33:47.839Z,1.90
2023-01-04T10:36:19.803Z,2.00
2023-01-04T10:38:47.525Z,2.20
2023-01-04T10:41:27.087Z,2.40
2023-01-04T10:44:10.887Z,2.40
2023-01-04T10:46:52.035Z,2.15
2023-01-04T10:49:21.635Z,1.67
2023-01-04T10:52:06.510Z,2.30
2023-01-04T10:55:00.295Z,2.20
2023-01-04T10:57:55.106Z,2.50
2023-01-04T11:00:25.400Z,2.10
2023-01-04T11:03:09.877Z,2.50
2023-01-04T11:05:49.424Z,2.50
2023-01-04T11:08:36.508Z,2.30
2023-01-04T11:11:13.503Z,2.22
2023-01-04T11:13:40.391Z,2.30
2023-01-04T11:16:08.374Z,2.50
2023-01-04T11:18:39.493Z,2.60
2023-01-04T11:21:13.089Z,2.20
2023-01-04T11:23:40.059Z,2.70
2023-01-04T11:26:16.063Z,2.60
2023-01-04T11:29:00.415Z,2.35
2023-01-04T11:31:36.430Z,2.40
2023-01-04T11:34:04.605Z,2.80
2023-01-04T11:36:31.454Z,2.40
2023-01-04T11:38:58.994Z,2.40
2023-01-04T11:41:26.976Z,1.80
2023-01-04T11:43:59.599Z,1.80
2023-01-04T11:46:29.115Z,1.87
2023-01-04T11:48:56.128Z,1.60
2023-01-04T11:51:28.940Z,1.60
2023-01-04T11:54:13.917Z,1.83
2023-01-04T11:57:01.618Z,1.40
2023-01-04T11:59:30.603Z,1.70
2023-01-04T12:02:42.760Z,1.60
2023-01-04T12:05:28.798Z,1.70
2023-01-04T12:07:56.872Z,1.45
2023-01-04T12:10:27.269Z,1.70
2023-01-04T12:12:55.564Z,1.40
2023-01-04T12:15:33.209Z,1.50
2023-01-04T12:18:05.487Z,1.30
2023-01-04T12:20:32.461Z,1.50
2023-01-04T12:22:59.271Z,1.37
2023-01-04T12:25:29.230Z,1.63
2023-01-04T12:27:57.033Z,1.60
2023-01-04T12:30:41.815Z,1.57
2023-01-04T12:33:30.767Z,1.60
2023-01-04T12:36:10.721Z,1.65
2023-01-04T12:38:52.807Z,1.40
2023-01-04T12:41:21.336Z,1.60
2023-01-04T12:43:50.003Z,1.23
2023-01-04T12:47:09.843Z,1.40
2023-01-04T12:49:56.355Z,1.30
2023-01-04T12:52:38.225Z,1.67
2023-01-04T12:55:52.322Z,1.55
2023-01-04T12:59:14.936Z,1.60
2023-01-04T13:01:27.464Z,1.80
2023-01-04T13:04:05.452Z,1.67
2023-01-04T13:06:40.462Z,1.60
2023-01-04T13:09:24.979Z,1.60
2023-01-04T13:12:08.150Z,1.58
2023-01-04T13:14:40.367Z,2.00
2023-01-04T13:17:22.885Z,1.30
2023-01-04T13:19:51.420Z,1.35
2023-01-04T13:22:29.586Z,1.27
2023-01-04T13:24:58.887Z,1.42
2023-01-04T13:27:26.946Z,1.30
2023-01-04T13:29:55.058Z,1.30
2023-01-04T13:32:25.087Z,1.13
2023-01-04T13:34:56.232Z,1.45
2023-01-04T13:37:37.438Z,1.47
2023-01-04T13:40:21.948Z,2.00
2023-01-04T13:42:56.846Z,1.80
2023-01-04T13:45:57.970Z,1.57
2023-01-04T13:48:35.716Z,1.60
2023-01-04T13:51:04.420Z,1.90
2023-01-04T13:53:33.416Z,2.00
2023-01-04T13:56:02.783Z,2.30
2023-01-04T13:58:35.233Z,1.90
2023-01-04T14:01:13.045Z,2.13
2023-01-04T14:03:46.093Z,2.40
2023-01-04T14:06:18.400Z,2.45
2023-01-04T14:08:56.306Z,2.13
2023-01-04T14:11:46.040Z,2.13
2023-01-04T14:14:19.351Z,2.35
2023-01-04T14:16:46.959Z,2.60
2023-01-04T14:19:35.412Z,2.70
2023-01-04T14:22:02.357Z,2.00
2023-01-04T14:27:36.129Z,4.03
2023-01-04T14:30:18.061Z,4.07
2023-01-04T14:33:00.445Z,2.80
2023-01-04T14:35:29.250Z,2.30
2023-01-04T14:38:04.290Z,2.58
2023-01-04T14:40:32.023Z,2.63
2023-01-04T14:42:59.233Z,2.67
2023-01-04T14:45:26.136Z,2.60
2023-01-04T14:47:52.989Z,2.50
2023-01-04T14:50:20.387Z,2.10
2023-01-04T14:52:51.675Z,2.53
2023-01-04T14:55:18.875Z,2.50
2023-01-04T14:57:46.050Z,2.47
2023-01-04T15:00:18.967Z,2.60
2023-01-04T15:02:50.376Z,2.45
2023-01-04T15:05:20.459Z,2.65
2023-01-04T15:07:47.780Z,2.35
2023-01-04T15:10:26.680Z,2.72
2023-01-04T15:12:55.308Z,2.22
2023-01-04T15:15:22.315Z,2.13
2023-01-04T15:17:49.199Z,2.10
2023-01-04T15:20:16.173Z,2.60
2023-01-04T15:22:43.953Z,2.70
2023-01-04T15:25:11.660Z,2.80
2023-01-04T15:27:42.233Z,2.70
2023-01-04T15:30:11.518Z,2.60
2023-01-04T15:32:38.661Z,2.50
2023-01-04T15:35:06.034Z,2.40
2023-01-04T15:37:33.007Z,2.40
2023-01-04T15:40:02.791Z,2.60
2023-01-04T15:42:57.154Z,2.63
2023-01-04T15:45:24.315Z,2.70
2023-01-04T15:47:51.736Z,2.42
2023-01-04T15:50:19.998Z,2.40
2023-01-04T15:52:46.933Z,2.40
2023-01-04T15:55:14.554Z,2.70
2023-01-04T15:57:44.146Z,2.80
2023-01-04T16:00:12.177Z,2.47
2023-01-04T16:02:39.191Z,2.20
2023-01-04T16:05:07.633Z,2.57
2023-01-04T16:07:36.635Z,2.60
2023-01-04T16:10:04.760Z,3.25
2023-01-04T16:12:44.455Z,2.57
2023-01-04T16:15:17.060Z,2.70
2023-01-04T16:17:44.988Z,2.60
2023-01-04T16:20:17.173Z,2.65
2023-01-04T16:22:44.171Z,2.57
2023-01-04T16:25:12.127Z,2.95
2023-01-04T16:27:39.771Z,2.95
2023-01-04T16:30:10.850Z,2.90
2023-01-04T16:32:41.414Z,3.17
2023-01-04T16:35:10.125Z,3.78
2023-01-04T16:37:36.998Z,3.45
2023-01-04T16:40:07.272Z,3.00
2023-01-04T16:42:36.414Z,3.28
2023-01-04T16:45:03.836Z,3.20
2023-01-04T16:47:41.458Z,3.00
2023-01-04T16:50:09.847Z,3.30
2023-01-04T16:52:36.815Z,3.97
2023-01-04T16:55:04.739Z,3.50
2023-01-04T16:57:31.714Z,3.28
2023-01-04T16:59:58.525Z,3.72
2023-01-04T17:02:25.541Z,3.58
2023-01-04T17:04:57.134Z,3.95
2023-01-04T17:07:24.087Z,3.75
2023-01-04T17:09:50.953Z,3.60
2023-01-04T17:15:41.153Z,3.60
2023-01-04T17:17:51.822Z,4.15
2023-01-04T17:20:19.044Z,3.72
2023-01-04T17:22:45.861Z,3.42
2023-01-04T17:25:12.792Z,4.18
2023-01-04T17:27:39.580Z,4.00
2023-01-04T17:30:07.039Z,4.03
2023-01-04T17:32:33.871Z,4.25
2023-01-04T17:35:00.696Z,4.57
2023-01-04T17:37:27.512Z,3.60
2023-01-04T17:39:54.860Z,4.07
2023-01-04T17:42:21.708Z,4.60
2023-01-04T17:44:49.535Z,4.65
2023-01-04T17:47:16.437Z,4.33
2023-01-04T17:49:43.363Z,3.77
2023-01-04T17:52:13.675Z,4.03
2023-01-04T17:54:43.327Z,3.93
2023-01-04T17:57:10.148Z,3.97
2023-01-04T17:59:37.052Z,4.50
2023-01-04T18:02:04.017Z,4.20
2023-01-04T18:04:31.046Z,4.00
2023-01-04T18:06:57.870Z,4.00
2023-01-04T18:09:27.073Z,4.47
2023-01-04T18:11:54.049Z,4.63
2023-01-04T18:14:21.035Z,4.30
2023-01-04T18:16:57.605Z,4.28
2023-01-04T18:19:30.265Z,4.13
2023-01-04T18:21:57.617Z,4.03
2023-01-04T18:24:41.628Z,3.20
2023-01-04T18:27:26.966Z,4.13
2023-01-04T18:29:55.589Z,9.32
2023-01-04T18:32:23.875Z,4.95
2023-01-04T18:34:50.844Z,3.60
2023-01-04T18:37:19.006Z,5.07
2023-01-04T18:39:46.749Z,7.22
2023-01-04T18:42:13.922Z,4.75
2023-01-04T18:44:47.413Z,6.90
2023-01-04T18:47:20.069Z,3.87
2023-01-04T18:49:47.554Z,3.73
2023-01-04T18:52:14.486Z,3.77
2023-01-04T18:54:41.580Z,4.33
2023-01-04T18:57:08.588Z,4.35
2023-01-04T18:59:35.505Z,7.00
2023-01-04T19:02:03.430Z,4.47
2023-01-04T19:04:32.939Z,3.93
2023-01-04T19:07:00.789Z,4.83
2023-01-04T19:09:27.681Z,4.80
2023-01-04T19:11:54.525Z,3.57
2023-01-04T19:14:21.451Z,4.63
2023-01-04T19:16:48.379Z,5.30
2023-01-04T19:19:15.308Z,4.30
2023-01-04T19:24:09.100Z,5.67
2023-01-04T19:26:36.205Z,5.05
2023-01-04T19:29:04.247Z,5.75
2023-01-04T19:31:31.264Z,5.50
2023-01-04T19:33:58.194Z,5.13
2023-01-04T19:36:25.129Z,5.80
2023-01-04T19:38:52.015Z,5.45
2023-01-04T19:41:29.137Z,5.30
2023-01-04T19:43:58.307Z,5.30
2023-01-04T19:46:25.344Z,6.18
2023-01-04T19:48:52.227Z,6.07
2023-01-04T19:53:46.217Z,5.18
2023-01-04T19:56:14.448Z,5.17
2023-01-04T19:58:41.416Z,5.00
2023-01-04T20:01:13.894Z,5.07
2023-01-04T20:03:42.308Z,5.32
2023-01-04T20:06:13.949Z,6.10
2023-01-04T20:11:15.179Z,6.30
2023-01-04T20:13:42.074Z,6.03
2023-01-04T20:16:09.405Z,6.35
2023-01-04T20:18:37.280Z,6.57
2023-01-04T20:21:10.703Z,6.53
2023-01-04T20:23:38.796Z,6.90
2023-01-04T20:26:12.573Z,6.75
2023-01-04T20:28:42.038Z,6.80
2023-01-04T20:31:11.165Z,6.63
2023-01-04T20:33:38.107Z,6.88
2023-01-04T20:36:29.841Z,6.75
2023-01-04T20:39:00.887Z,7.38
2023-01-04T20:41:29.253Z,6.55
2023-01-04T20:43:56.276Z,7.20
2023-01-04T20:46:27.135Z,7.00
2023-01-04T20:48:55.309Z,6.30
2023-01-04T20:51:25.551Z,7.43
2023-01-04T20:53:52.907Z,6.70
2023-01-04T20:56:26.321Z,7.30
2023-01-04T20:58:53.468Z,6.70
2023-01-04T21:01:21.959Z,6.15
2023-01-04T21:03:49.408Z,7.35
2023-01-04T21:06:18.548Z,6.60
2023-01-04T21:08:46.604Z,7.13
2023-01-04T21:11:14.740Z,6.23
2023-01-04T21:13:42.280Z,7.17
2023-01-04T21:16:10.707Z,7.57
2023-01-04T21:18:38.202Z,7.15
2023-01-04T21:21:07.631Z,7.55
2023-01-04T21:23:34.529Z,7.00
2023-01-04T21:26:20.420Z,8.18
2023-01-04T21:28:47.671Z,8.00
2023-01-04T21:31:24.727Z,6.72
2023-01-04T21:33:54.396Z,5.97
2023-01-04T21:36:23.660Z,5.93
